createdAt,value
2023-08-14T00:04:41.910Z,100430.06
2023-08-14T00:11:07.418Z,100430.01
2023-08-14T00:16:56.676Z,100434.55
2023-08-14T00:23:12.811Z,100442.36
2023-08-14T00:29:40.262Z,100459.56
2023-08-14T00:36:07.275Z,100456.72
2023-08-14T00:42:33.703Z,100459.66
2023-08-14T00:55:30.405Z,100452.41
2023-08-14T01:00:56.519Z,100448.87
2023-08-14T01:06:24.655Z,100452.23
2023-08-14T01:12:37.937Z,100457.40
2023-08-14T01:17:52.850Z,100465.30
2023-08-14T01:24:14.318Z,100468.52
2023-08-14T01:29:52.907Z,100464.64
2023-08-14T01:35:01.230Z,100467.75
2023-08-14T01:40:17.737Z,100468.67
2023-08-14T01:46:02.488Z,100465.64
2023-08-14T01:51:43.298Z,100458.25
2023-08-14T01:56:50.495Z,100451.40
2023-08-14T02:02:03.143Z,100458.76
2023-08-14T02:07:08.598Z,100464.21
2023-08-14T02:12:37.042Z,100458.92
2023-08-14T02:18:17.485Z,100455.68
2023-08-14T02:23:25.714Z,100455.56
2023-08-14T02:28:48.275Z,100449.09
2023-08-14T02:35:00.350Z,100442.69
2023-08-14T02:40:46.305Z,100442.70
2023-08-14T02:45:51.022Z,100443.21
2023-08-14T02:51:30.072Z,100427.74
2023-08-14T02:56:42.445Z,100425.98
2023-08-14T03:02:18.318Z,100423.67
2023-08-14T03:07:46.551Z,100437.68
2023-08-14T03:13:31.106Z,100429.52
2023-08-14T03:18:51.506Z,100432.70
2023-08-14T03:24:45.946Z,100447.08
2023-08-14T03:31:05.124Z,100446.31
2023-08-14T03:37:34.130Z,100446.98
2023-08-14T03:44:00.051Z,100456.09
2023-08-14T03:50:28.389Z,100465.39
2023-08-14T05:45:32.508Z,100504.40
2023-08-14T05:51:30.858Z,100509.79
2023-08-14T05:57:45.601Z,100501.91
2023-08-14T06:04:11.296Z,100508.91
2023-08-14T06:15:59.750Z,100522.93
2023-08-14T06:21:05.060Z,100524.20
2023-08-14T06:26:10.822Z,100525.63
2023-08-14T06:31:19.711Z,100526.11
2023-08-14T06:36:24.426Z,100529.77
2023-08-14T06:41:56.289Z,100532.68
2023-08-14T06:48:04.393Z,100530.68
2023-08-14T06:53:58.331Z,100523.11
2023-08-14T06:59:46.712Z,100526.58
2023-08-14T07:06:05.793Z,100531.76
2023-08-14T07:12:09.638Z,100544.12
2023-08-14T07:18:34.416Z,100548.39
2023-08-14T07:24:50.099Z,100548.75
2023-08-14T07:30:20.176Z,100553.52
2023-08-14T07:36:20.797Z,100546.85
2023-08-14T07:41:32.277Z,100546.65
2023-08-14T07:47:42.947Z,100544.90
2023-08-14T07:53:19.912Z,100544.76
2023-08-14T07:59:22.497Z,100536.66
2023-08-14T08:05:20.887Z,100532.79
2023-08-14T08:10:55.502Z,100534.69
2023-08-14T08:16:39.808Z,100539.73
2023-08-14T08:22:19.183Z,100541.00
2023-08-14T08:28:33.629Z,100542.17
2023-08-14T08:34:30.763Z,100540.64
2023-08-14T08:40:35.649Z,100533.67
2023-08-14T08:47:00.790Z,100535.64
2023-08-14T08:53:25.731Z,100536.13
2023-08-14T08:59:39.297Z,100533.25
2023-08-14T09:05:58.121Z,100525.44
2023-08-14T09:11:54.250Z,100511.71
2023-08-14T09:17:52.011Z,100508.88
2023-08-14T09:23:22.074Z,100501.35
2023-08-14T09:29:14.702Z,100506.02
2023-08-14T09:35:10.695Z,100503.36
2023-08-14T09:41:39.078Z,100506.32
2023-08-14T09:48:04.254Z,100507.98
2023-08-14T10:00:45.265Z,100499.55
2023-08-14T10:07:10.651Z,100498.48
2023-08-14T10:13:18.907Z,100501.00
2023-08-14T10:19:04.173Z,100494.27
2023-08-14T10:25:18.298Z,100500.69
2023-08-14T10:31:34.061Z,100497.18
2023-08-14T10:37:39.481Z,100490.52
2023-08-14T10:43:45.385Z,100490.63
2023-08-14T10:49:49.839Z,100488.74
2023-08-14T10:55:20.788Z,100483.71
2023-08-14T11:00:47.357Z,100480.52
2023-08-14T11:06:01.801Z,100483.86
2023-08-14T11:11:32.799Z,100476.32
2023-08-14T11:16:54.045Z,100470.64
2023-08-14T11:22:17.731Z,100476.91
2023-08-14T11:27:25.052Z,100476.86
2023-08-14T11:32:33.443Z,100476.72
2023-08-14T11:38:16.538Z,100474.90
2023-08-14T11:44:20.520Z,100469.70
2023-08-14T11:50:02.676Z,100476.52
2023-08-14T11:55:25.292Z,100476.91
2023-08-14T12:01:39.004Z,100471.92
2023-08-14T12:07:46.444Z,100465.85
2023-08-14T12:13:43.793Z,100460.92
2023-08-14T12:19:22.350Z,100461.77
2023-08-14T12:25:28.396Z,100460.21
2023-08-14T12:31:15.726Z,100448.02
2023-08-14T12:36:23.541Z,100447.32
2023-08-14T12:42:04.324Z,100443.68
2023-08-14T12:47:56.852Z,100437.34
2023-08-14T12:53:45.110Z,100436.08
2023-08-14T12:59:42.728Z,100431.80
2023-08-14T13:06:00.969Z,100427.39
2023-08-14T13:11:23.284Z,100426.98
2023-08-14T13:17:05.830Z,100418.69
2023-08-14T13:22:24.856Z,100411.98
2023-08-14T13:33:51.231Z,100401.45
2023-08-14T13:39:03.271Z,100396.11
2023-08-14T13:44:48.841Z,100386.83
2023-08-14T13:50:22.986Z,100385.39
2023-08-14T13:55:45.222Z,100382.84
2023-08-14T14:01:28.772Z,100385.04
2023-08-14T14:06:48.942Z,100378.27
2023-08-14T14:12:44.454Z,100372.06
2023-08-14T14:17:59.009Z,100360.34
2023-08-14T14:23:31.661Z,100350.16
2023-08-14T14:29:40.929Z,100338.29
2023-08-14T14:35:15.524Z,100330.80
2023-08-14T14:40:24.899Z,100329.93
2023-08-14T14:45:54.043Z,100331.65
2023-08-14T14:51:58.846Z,100330.09
2023-08-14T14:57:24.295Z,100326.48
2023-08-14T15:02:37.551Z,100320.14
2023-08-14T15:07:50.703Z,100316.30
2023-08-14T15:13:10.561Z,100320.66
2023-08-14T15:18:56.309Z,100338.80
2023-08-14T15:25:04.135Z,100355.42
2023-08-14T15:30:50.455Z,100367.00
2023-08-14T15:36:26.356Z,100368.45
2023-08-14T15:41:34.048Z,100370.42
2023-08-14T15:46:45.654Z,100365.08
2023-08-14T15:52:16.409Z,100360.59
2023-08-14T15:57:24.221Z,100366.59
2023-08-14T16:02:28.791Z,100356.55
2023-08-14T16:07:43.235Z,100356.46
2023-08-14T16:12:49.361Z,100360.87
2023-08-14T16:17:54.213Z,100358.65
2023-08-14T16:22:59.600Z,100355.21
2023-08-14T16:28:05.150Z,100356.45
2023-08-14T16:33:10.622Z,100360.59
2023-08-14T16:38:23.299Z,100362.48
2023-08-14T16:43:37.945Z,100364.16
2023-08-14T16:48:42.447Z,100362.66
2023-08-14T16:53:46.802Z,100367.98
2023-08-14T16:58:57.067Z,100361.44
2023-08-14T17:04:42.196Z,100366.16
2023-08-14T17:09:59.475Z,100368.50
2023-08-14T17:15:24.509Z,100370.08
2023-08-14T17:20:32.301Z,100367.04
2023-08-14T17:25:44.800Z,100373.98
2023-08-14T17:31:52.748Z,100376.20
2023-08-14T17:37:41.586Z,100378.08
2023-08-14T17:43:36.265Z,100384.80
2023-08-14T17:49:18.161Z,100378.34
2023-08-14T17:55:37.119Z,100371.45
2023-08-14T18:02:03.116Z,100365.42
2023-08-14T18:08:09.641Z,100365.58
2023-08-14T18:13:48.877Z,100368.30
2023-08-14T18:18:58.223Z,100368.00
2023-08-14T18:25:33.249Z,100369.97
2023-08-14T18:31:49.960Z,100368.17
2023-08-14T18:37:49.694Z,100368.86
2023-08-14T18:43:46.530Z,100369.27
2023-08-14T18:49:46.155Z,100381.67
2023-08-14T18:55:51.116Z,100383.84
2023-08-14T19:02:12.935Z,100393.02
2023-08-14T19:07:39.440Z,100400.86
2023-08-14T19:13:46.876Z,100412.33
2023-08-14T19:19:37.252Z,100416.67
2023-08-14T19:26:26.153Z,100428.45
2023-08-14T19:32:56.386Z,100439.34
2023-08-14T19:39:21.851Z,100444.88
2023-08-14T19:45:42.150Z,100445.97
2023-08-14T19:58:21.255Z,100447.95
2023-08-14T20:04:25.549Z,100457.81
2023-08-14T20:10:26.846Z,100459.39
2023-08-14T20:16:48.896Z,100452.02
2023-08-14T20:23:04.013Z,100453.70
2023-08-14T20:29:20.868Z,100455.74
2023-08-14T20:34:30.277Z,100452.13
2023-08-14T20:40:12.793Z,100454.55
2023-08-14T20:46:25.101Z,100459.50
2023-08-14T20:52:26.763Z,100457.85
2023-08-14T20:58:55.467Z,100455.45
2023-08-14T21:04:30.715Z,100456.02
2023-08-14T21:10:20.577Z,100449.87
2023-08-14T21:16:28.980Z,100445.29
2023-08-14T21:21:51.226Z,100440.46
2023-08-14T21:27:16.970Z,100433.52
2023-08-14T21:32:25.181Z,100429.79
2023-08-14T21:37:50.139Z,100424.34
2023-08-14T21:42:58.672Z,100431.64
2023-08-14T21:48:21.340Z,100429.19
2023-08-14T21:53:44.195Z,100425.34
2023-08-14T21:59:28.677Z,100424.69
2023-08-14T22:04:42.863Z,100422.70
2023-08-14T22:10:45.518Z,100422.77
2023-08-14T22:17:11.552Z,100423.55
2023-08-14T22:22:57.035Z,100423.47
2023-08-14T22:29:01.524Z,100424.54
2023-08-14T22:35:18.843Z,100424.16
2023-08-14T22:41:03.937Z,100421.33
2023-08-14T22:46:42.126Z,100424.71
2023-08-14T22:52:31.105Z,100429.73
2023-08-14T22:58:35.832Z,100426.34
2023-08-14T23:05:01.231Z,100428.50
2023-08-14T23:11:28.694Z,100421.42
2023-08-14T23:17:07.331Z,100421.16
2023-08-14T23:23:33.968Z,100419.65
2023-08-14T23:42:24.603Z,100422.06
2023-08-14T23:47:52.808Z,100428.00
2023-08-14T23:53:57.950Z,100427.66
2023-08-14T23:59:25.819Z,100429.02
